sensor_id;sensor_type;location;lat;lon;timestamp;P1;durP1;ratioP1;P2;durP2;ratioP2
36391;SDS011;22639;42.690;23.356;2023-04-03T00:00:33;6.37;;;4.30;;
36391;SDS011;22639;42.690;23.356;2023-04-03T00:02:58;8.67;;;5.80;;
36391;SDS011;22639;42.690;23.356;2023-04-03T00:05:24;6.20;;;4.90;;
36391;SDS011;22639;42.690;23.356;2023-04-03T00:07:49;7.03;;;6.07;;
36391;SDS011;22639;42.690;23.356;2023-04-03T00:10:15;7.10;;;5.23;;
36391;SDS011;22639;42.690;23.356;2023-04-03T00:12:40;8.80;;;4.60;;
36391;SDS011;22639;42.690;23.356;2023-04-03T00:15:06;7.07;;;4.97;;
36391;SDS011;22639;42.690;23.356;2023-04-03T00:17:31;6.03;;;4.27;;
36391;SDS011;22639;42.690;23.356;2023-04-03T00:19:56;5.67;;;3.30;;
36391;SDS011;22639;42.690;23.356;2023-04-03T00:22:21;5.03;;;3.93;;
36391;SDS011;22639;42.690;23.356;2023-04-03T00:24:47;5.10;;;4.20;;
36391;SDS011;22639;42.690;23.356;2023-04-03T00:27:12;5.00;;;4.00;;
36391;SDS011;22639;42.690;23.356;2023-04-03T00:29:37;4.67;;;3.37;;
36391;SDS011;22639;42.690;23.356;2023-04-03T00:32:02;7.20;;;4.73;;
36391;SDS011;22639;42.690;23.356;2023-04-03T00:34:28;5.60;;;3.97;;
36391;SDS011;22639;42.690;23.356;2023-04-03T00:36:53;8.77;;;5.43;;
36391;SDS011;22639;42.690;23.356;2023-04-03T00:39:18;6.67;;;4.53;;
36391;SDS011;22639;42.690;23.356;2023-04-03T00:41:43;6.07;;;4.13;;
36391;SDS011;22639;42.690;23.356;2023-04-03T00:44:19;6.57;;;4.47;;
36391;SDS011;22639;42.690;23.356;2023-04-03T00:46:44;6.47;;;4.23;;
36391;SDS011;22639;42.690;23.356;2023-04-03T00:49:09;4.67;;;3.67;;
36391;SDS011;22639;42.690;23.356;2023-04-03T00:51:35;5.00;;;4.07;;
36391;SDS011;22639;42.690;23.356;2023-04-03T00:54:01;7.33;;;3.67;;
36391;SDS011;22639;42.690;23.356;2023-04-03T00:56:27;7.33;;;4.03;;
36391;SDS011;22639;42.690;23.356;2023-04-03T00:58:57;4.67;;;4.23;;
36391;SDS011;22639;42.690;23.356;2023-04-03T01:01:25;6.43;;;4.47;;
36391;SDS011;22639;42.690;23.356;2023-04-03T01:03:51;6.60;;;4.00;;
36391;SDS011;22639;42.690;23.356;2023-04-03T01:06:18;6.57;;;4.73;;
36391;SDS011;22639;42.690;23.356;2023-04-03T01:08:45;4.33;;;3.83;;
36391;SDS011;22639;42.690;23.356;2023-04-03T01:11:12;5.73;;;3.67;;
36391;SDS011;22639;42.690;23.356;2023-04-03T01:13:38;5.10;;;3.57;;
36391;SDS011;22639;42.690;23.356;2023-04-03T01:16:03;6.97;;;4.67;;
36391;SDS011;22639;42.690;23.356;2023-04-03T01:18:30;12.63;;;5.33;;
36391;SDS011;22639;42.690;23.356;2023-04-03T01:23:32;6.07;;;4.77;;
36391;SDS011;22639;42.690;23.356;2023-04-03T01:26:02;10.47;;;5.70;;
36391;SDS011;22639;42.690;23.356;2023-04-03T01:28:31;5.83;;;4.40;;
36391;SDS011;22639;42.690;23.356;2023-04-03T01:33:45;7.97;;;5.70;;
36391;SDS011;22639;42.690;23.356;2023-04-03T01:36:13;7.50;;;5.87;;
36391;SDS011;22639;42.690;23.356;2023-04-03T01:38:38;7.70;;;5.33;;
36391;SDS011;22639;42.690;23.356;2023-04-03T01:41:03;6.23;;;5.63;;
36391;SDS011;22639;42.690;23.356;2023-04-03T01:43:29;6.47;;;5.03;;
36391;SDS011;22639;42.690;23.356;2023-04-03T01:45:54;5.13;;;4.60;;
36391;SDS011;22639;42.690;23.356;2023-04-03T01:48:20;7.97;;;4.43;;
36391;SDS011;22639;42.690;23.356;2023-04-03T01:50:45;4.27;;;3.43;;
36391;SDS011;22639;42.690;23.356;2023-04-03T01:53:10;5.70;;;3.87;;
36391;SDS011;22639;42.690;23.356;2023-04-03T01:55:36;3.80;;;3.40;;
36391;SDS011;22639;42.690;23.356;2023-04-03T01:58:01;4.63;;;2.93;;
36391;SDS011;22639;42.690;23.356;2023-04-03T02:00:26;5.43;;;3.53;;
36391;SDS011;22639;42.690;23.356;2023-04-03T02:02:51;10.80;;;4.00;;
36391;SDS011;22639;42.690;23.356;2023-04-03T02:05:17;5.80;;;3.67;;
36391;SDS011;22639;42.690;23.356;2023-04-03T02:07:42;4.63;;;3.07;;
36391;SDS011;22639;42.690;23.356;2023-04-03T02:10:07;2.63;;;2.43;;
36391;SDS011;22639;42.690;23.356;2023-04-03T02:12:32;6.20;;;2.83;;
36391;SDS011;22639;42.690;23.356;2023-04-03T02:14:58;2.97;;;2.50;;
36391;SDS011;22639;42.690;23.356;2023-04-03T02:17:23;4.13;;;2.87;;
36391;SDS011;22639;42.690;23.356;2023-04-03T02:19:48;4.30;;;2.60;;
36391;SDS011;22639;42.690;23.356;2023-04-03T02:22:14;3.20;;;2.70;;
36391;SDS011;22639;42.690;23.356;2023-04-03T02:24:39;4.40;;;3.20;;
36391;SDS011;22639;42.690;23.356;2023-04-03T02:27:05;3.53;;;2.77;;
36391;SDS011;22639;42.690;23.356;2023-04-03T02:29:30;4.77;;;3.70;;
36391;SDS011;22639;42.690;23.356;2023-04-03T02:31:55;2.83;;;2.27;;
36391;SDS011;22639;42.690;23.356;2023-04-03T02:34:21;4.33;;;3.20;;
36391;SDS011;22639;42.690;23.356;2023-04-03T02:36:46;4.83;;;2.97;;
36391;SDS011;22639;42.690;23.356;2023-04-03T02:39:11;3.87;;;2.57;;
36391;SDS011;22639;42.690;23.356;2023-04-03T02:41:36;3.60;;;2.57;;
36391;SDS011;22639;42.690;23.356;2023-04-03T02:44:02;3.73;;;2.93;;
36391;SDS011;22639;42.690;23.356;2023-04-03T02:46:28;4.33;;;3.07;;
36391;SDS011;22639;42.690;23.356;2023-04-03T02:48:53;4.37;;;3.57;;
36391;SDS011;22639;42.690;23.356;2023-04-03T02:51:18;3.03;;;2.63;;
36391;SDS011;22639;42.690;23.356;2023-04-03T02:53:43;6.73;;;3.57;;
36391;SDS011;22639;42.690;23.356;2023-04-03T02:56:09;5.93;;;4.03;;
36391;SDS011;22639;42.690;23.356;2023-04-03T02:58:34;8.80;;;5.73;;
36391;SDS011;22639;42.690;23.356;2023-04-03T03:01:00;6.40;;;4.20;;
36391;SDS011;22639;42.690;23.356;2023-04-03T03:03:25;7.33;;;3.63;;
36391;SDS011;22639;42.690;23.356;2023-04-03T03:06:00;8.83;;;5.93;;
36391;SDS011;22639;42.690;23.356;2023-04-03T03:08:25;7.93;;;5.73;;
36391;SDS011;22639;42.690;23.356;2023-04-03T03:10:50;10.07;;;6.87;;
36391;SDS011;22639;42.690;23.356;2023-04-03T03:13:16;7.13;;;4.97;;
36391;SDS011;22639;42.690;23.356;2023-04-03T03:15:41;9.67;;;5.97;;
36391;SDS011;22639;42.690;23.356;2023-04-03T03:18:06;6.77;;;5.97;;
36391;SDS011;22639;42.690;23.356;2023-04-03T03:20:31;5.57;;;4.93;;
36391;SDS011;22639;42.690;23.356;2023-04-03T03:22:57;7.60;;;5.23;;
36391;SDS011;22639;42.690;23.356;2023-04-03T03:25:22;9.93;;;6.17;;
36391;SDS011;22639;42.690;23.356;2023-04-03T03:27:47;9.67;;;5.43;;
36391;SDS011;22639;42.690;23.356;2023-04-03T03:30:12;6.83;;;5.07;;
36391;SDS011;22639;42.690;23.356;2023-04-03T03:32:38;11.00;;;6.90;;
36391;SDS011;22639;42.690;23.356;2023-04-03T03:35:03;10.50;;;6.87;;
36391;SDS011;22639;42.690;23.356;2023-04-03T03:37:28;7.13;;;4.27;;
36391;SDS011;22639;42.690;23.356;2023-04-03T03:39:53;8.87;;;5.30;;
36391;SDS011;22639;42.690;23.356;2023-04-03T03:42:19;7.63;;;5.03;;
36391;SDS011;22639;42.690;23.356;2023-04-03T03:44:44;8.90;;;6.30;;
36391;SDS011;22639;42.690;23.356;2023-04-03T03:47:10;9.47;;;6.10;;
36391;SDS011;22639;42.690;23.356;2023-04-03T03:49:36;13.13;;;6.03;;
36391;SDS011;22639;42.690;23.356;2023-04-03T03:52:01;10.50;;;7.67;;
36391;SDS011;22639;42.690;23.356;2023-04-03T03:54:26;10.13;;;6.70;;
36391;SDS011;22639;42.690;23.356;2023-04-03T03:56:51;14.90;;;8.40;;
36391;SDS011;22639;42.690;23.356;2023-04-03T03:59:16;34.13;;;18.47;;
36391;SDS011;22639;42.690;23.356;2023-04-03T04:01:42;37.73;;;20.77;;
36391;SDS011;22639;42.690;23.356;2023-04-03T04:04:07;29.43;;;18.67;;
36391;SDS011;22639;42.690;23.356;2023-04-03T04:06:32;34.73;;;24.27;;
36391;SDS011;22639;42.690;23.356;2023-04-03T04:08:58;12.70;;;8.73;;
36391;SDS011;22639;42.690;23.356;2023-04-03T04:11:23;7.60;;;5.80;;
36391;SDS011;22639;42.690;23.356;2023-04-03T04:13:48;7.57;;;5.37;;
36391;SDS011;22639;42.690;23.356;2023-04-03T04:16:13;6.03;;;4.63;;
36391;SDS011;22639;42.690;23.356;2023-04-03T04:18:39;12.87;;;9.10;;
36391;SDS011;22639;42.690;23.356;2023-04-03T04:21:04;10.60;;;7.83;;
36391;SDS011;22639;42.690;23.356;2023-04-03T04:23:29;10.67;;;6.33;;
36391;SDS011;22639;42.690;23.356;2023-04-03T04:25:55;7.93;;;5.57;;
36391;SDS011;22639;42.690;23.356;2023-04-03T04:28:20;9.57;;;5.87;;
36391;SDS011;22639;42.690;23.356;2023-04-03T04:30:47;11.27;;;8.53;;
36391;SDS011;22639;42.690;23.356;2023-04-03T04:33:13;11.83;;;9.37;;
36391;SDS011;22639;42.690;23.356;2023-04-03T04:35:39;14.57;;;7.97;;
36391;SDS011;22639;42.690;23.356;2023-04-03T04:38:06;8.33;;;7.47;;
36391;SDS011;22639;42.690;23.356;2023-04-03T04:40:33;10.43;;;9.30;;
36391;SDS011;22639;42.690;23.356;2023-04-03T04:42:59;10.77;;;8.07;;
36391;SDS011;22639;42.690;23.356;2023-04-03T04:45:24;8.87;;;6.57;;
36391;SDS011;22639;42.690;23.356;2023-04-03T04:47:50;10.77;;;7.53;;
36391;SDS011;22639;42.690;23.356;2023-04-03T04:50:17;9.47;;;6.23;;
36391;SDS011;22639;42.690;23.356;2023-04-03T04:52:42;9.57;;;6.03;;
36391;SDS011;22639;42.690;23.356;2023-04-03T04:55:08;9.40;;;6.50;;
36391;SDS011;22639;42.690;23.356;2023-04-03T04:57:33;7.70;;;6.27;;
36391;SDS011;22639;42.690;23.356;2023-04-03T05:00:00;14.80;;;9.60;;
36391;SDS011;22639;42.690;23.356;2023-04-03T05:02:26;12.97;;;10.10;;
36391;SDS011;22639;42.690;23.356;2023-04-03T05:04:51;18.47;;;12.07;;
36391;SDS011;22639;42.690;23.356;2023-04-03T05:07:17;13.87;;;9.13;;
36391;SDS011;22639;42.690;23.356;2023-04-03T05:09:42;13.27;;;10.77;;
36391;SDS011;22639;42.690;23.356;2023-04-03T05:12:08;12.63;;;8.63;;
36391;SDS011;22639;42.690;23.356;2023-04-03T05:14:34;12.93;;;8.23;;
36391;SDS011;22639;42.690;23.356;2023-04-03T05:17:00;11.93;;;7.10;;
36391;SDS011;22639;42.690;23.356;2023-04-03T05:19:26;11.13;;;7.60;;
36391;SDS011;22639;42.690;23.356;2023-04-03T05:21:52;9.20;;;6.97;;
36391;SDS011;22639;42.690;23.356;2023-04-03T05:24:19;9.23;;;7.00;;
36391;SDS011;22639;42.690;23.356;2023-04-03T05:26:44;11.37;;;7.37;;
36391;SDS011;22639;42.690;23.356;2023-04-03T05:29:09;12.97;;;8.50;;
36391;SDS011;22639;42.690;23.356;2023-04-03T05:31:35;8.73;;;7.00;;
36391;SDS011;22639;42.690;23.356;2023-04-03T05:34:00;13.07;;;8.30;;
36391;SDS011;22639;42.690;23.356;2023-04-03T05:36:26;9.97;;;8.10;;
36391;SDS011;22639;42.690;23.356;2023-04-03T05:38:51;15.07;;;8.57;;
36391;SDS011;22639;42.690;23.356;2023-04-03T05:41:16;14.63;;;11.17;;
36391;SDS011;22639;42.690;23.356;2023-04-03T05:43:41;12.60;;;8.90;;
36391;SDS011;22639;42.690;23.356;2023-04-03T05:46:10;12.23;;;10.43;;
36391;SDS011;22639;42.690;23.356;2023-04-03T05:48:36;14.73;;;11.37;;
36391;SDS011;22639;42.690;23.356;2023-04-03T05:51:02;14.77;;;10.80;;
36391;SDS011;22639;42.690;23.356;2023-04-03T05:53:27;17.70;;;14.00;;
36391;SDS011;22639;42.690;23.356;2023-04-03T05:55:54;18.10;;;12.10;;
36391;SDS011;22639;42.690;23.356;2023-04-03T05:58:19;16.03;;;11.37;;
36391;SDS011;22639;42.690;23.356;2023-04-03T06:00:44;19.53;;;12.77;;
36391;SDS011;22639;42.690;23.356;2023-04-03T06:03:10;25.10;;;15.83;;
36391;SDS011;22639;42.690;23.356;2023-04-03T06:05:35;20.77;;;14.77;;
36391;SDS011;22639;42.690;23.356;2023-04-03T06:08:01;22.17;;;14.93;;
36391;SDS011;22639;42.690;23.356;2023-04-03T06:10:26;18.97;;;14.13;;
36391;SDS011;22639;42.690;23.356;2023-04-03T06:12:52;16.63;;;12.93;;
36391;SDS011;22639;42.690;23.356;2023-04-03T06:15:17;16.00;;;12.77;;
36391;SDS011;22639;42.690;23.356;2023-04-03T06:17:43;18.37;;;11.67;;
36391;SDS011;22639;42.690;23.356;2023-04-03T06:20:08;13.67;;;10.00;;
36391;SDS011;22639;42.690;23.356;2023-04-03T06:22:34;17.40;;;11.70;;
36391;SDS011;22639;42.690;23.356;2023-04-03T06:24:59;14.17;;;9.67;;
36391;SDS011;22639;42.690;23.356;2023-04-03T06:27:24;10.70;;;8.03;;
36391;SDS011;22639;42.690;23.356;2023-04-03T06:29:50;11.43;;;8.47;;
36391;SDS011;22639;42.690;23.356;2023-04-03T06:32:15;11.33;;;8.90;;
36391;SDS011;22639;42.690;23.356;2023-04-03T06:34:41;11.17;;;9.63;;
36391;SDS011;22639;42.690;23.356;2023-04-03T06:37:10;13.90;;;9.67;;
36391;SDS011;22639;42.690;23.356;2023-04-03T06:39:35;15.23;;;9.27;;
36391;SDS011;22639;42.690;23.356;2023-04-03T06:42:00;10.47;;;8.20;;
36391;SDS011;22639;42.690;23.356;2023-04-03T06:44:26;12.57;;;9.07;;
36391;SDS011;22639;42.690;23.356;2023-04-03T06:46:51;11.13;;;7.93;;
36391;SDS011;22639;42.690;23.356;2023-04-03T06:49:17;12.90;;;9.70;;
36391;SDS011;22639;42.690;23.356;2023-04-03T06:51:43;11.57;;;9.43;;
36391;SDS011;22639;42.690;23.356;2023-04-03T06:54:08;14.20;;;9.50;;
36391;SDS011;22639;42.690;23.356;2023-04-03T06:56:33;15.20;;;9.20;;
36391;SDS011;22639;42.690;23.356;2023-04-03T06:58:59;11.93;;;9.67;;
36391;SDS011;22639;42.690;23.356;2023-04-03T07:01:25;11.33;;;8.50;;
36391;SDS011;22639;42.690;23.356;2023-04-03T07:03:52;13.77;;;10.63;;
36391;SDS011;22639;42.690;23.356;2023-04-03T07:06:18;15.73;;;10.30;;
36391;SDS011;22639;42.690;23.356;2023-04-03T07:08:44;13.03;;;9.60;;
36391;SDS011;22639;42.690;23.356;2023-04-03T07:11:10;15.23;;;11.07;;
36391;SDS011;22639;42.690;23.356;2023-04-03T07:13:36;13.33;;;9.67;;
36391;SDS011;22639;42.690;23.356;2023-04-03T07:16:02;10.60;;;8.73;;
36391;SDS011;22639;42.690;23.356;2023-04-03T07:18:28;12.33;;;9.13;;
36391;SDS011;22639;42.690;23.356;2023-04-03T07:20:54;12.00;;;9.17;;
36391;SDS011;22639;42.690;23.356;2023-04-03T07:23:19;10.77;;;7.37;;
36391;SDS011;22639;42.690;23.356;2023-04-03T07:25:45;8.57;;;7.67;;
36391;SDS011;22639;42.690;23.356;2023-04-03T07:28:11;9.80;;;7.18;;
36391;SDS011;22639;42.690;23.356;2023-04-03T07:30:44;8.43;;;6.45;;
36391;SDS011;22639;42.690;23.356;2023-04-03T07:33:10;10.95;;;8.18;;
36391;SDS011;22639;42.690;23.356;2023-04-03T07:35:36;11.90;;;8.35;;
36391;SDS011;22639;42.690;23.356;2023-04-03T07:38:02;11.55;;;8.85;;
36391;SDS011;22639;42.690;23.356;2023-04-03T07:40:27;19.92;;;11.40;;
36391;SDS011;22639;42.690;23.356;2023-04-03T07:42:52;17.80;;;11.90;;
36391;SDS011;22639;42.690;23.356;2023-04-03T07:45:17;15.35;;;11.68;;
36391;SDS011;22639;42.690;23.356;2023-04-03T07:47:44;13.93;;;11.27;;
36391;SDS011;22639;42.690;23.356;2023-04-03T07:50:09;16.02;;;12.93;;
36391;SDS011;22639;42.690;23.356;2023-04-03T07:52:35;18.92;;;13.60;;
36391;SDS011;22639;42.690;23.356;2023-04-03T07:55:01;16.92;;;12.75;;
36391;SDS011;22639;42.690;23.356;2023-04-03T07:57:27;14.73;;;12.85;;
36391;SDS011;22639;42.690;23.356;2023-04-03T07:59:52;18.30;;;12.30;;
36391;SDS011;22639;42.690;23.356;2023-04-03T08:02:18;17.98;;;12.80;;
36391;SDS011;22639;42.690;23.356;2023-04-03T08:04:43;15.52;;;11.35;;
36391;SDS011;22639;42.690;23.356;2023-04-03T08:07:09;15.23;;;11.63;;
36391;SDS011;22639;42.690;23.356;2023-04-03T08:09:34;17.27;;;12.70;;
36391;SDS011;22639;42.690;23.356;2023-04-03T08:11:59;16.58;;;10.82;;
36391;SDS011;22639;42.690;23.356;2023-04-03T08:14:26;17.00;;;12.57;;
36391;SDS011;22639;42.690;23.356;2023-04-03T08:16:51;20.30;;;12.10;;
36391;SDS011;22639;42.690;23.356;2023-04-03T08:19:16;14.17;;;10.87;;
36391;SDS011;22639;42.690;23.356;2023-04-03T08:21:43;13.35;;;11.57;;
36391;SDS011;22639;42.690;23.356;2023-04-03T08:24:08;14.40;;;11.52;;
36391;SDS011;22639;42.690;23.356;2023-04-03T08:26:34;13.43;;;10.80;;
36391;SDS011;22639;42.690;23.356;2023-04-03T08:28:59;15.52;;;11.77;;
36391;SDS011;22639;42.690;23.356;2023-04-03T08:31:25;13.18;;;9.23;;
36391;SDS011;22639;42.690;23.356;2023-04-03T08:33:50;13.43;;;10.43;;
36391;SDS011;22639;42.690;23.356;2023-04-03T08:36:17;14.85;;;11.18;;
36391;SDS011;22639;42.690;23.356;2023-04-03T08:38:43;12.65;;;10.10;;
36391;SDS011;22639;42.690;23.356;2023-04-03T08:44:03;16.48;;;10.43;;
36391;SDS011;22639;42.690;23.356;2023-04-03T08:49:03;15.00;;;10.95;;
36391;SDS011;22639;42.690;23.356;2023-04-03T08:51:29;9.10;;;7.20;;
36391;SDS011;22639;42.690;23.356;2023-04-03T08:53:58;10.85;;;8.32;;
36391;SDS011;22639;42.690;23.356;2023-04-03T08:56:24;9.95;;;8.40;;
36391;SDS011;22639;42.690;23.356;2023-04-03T08:58:52;11.35;;;9.73;;
36391;SDS011;22639;42.690;23.356;2023-04-03T09:01:23;11.82;;;10.10;;
36391;SDS011;22639;42.690;23.356;2023-04-03T09:03:49;12.00;;;10.43;;
36391;SDS011;22639;42.690;23.356;2023-04-03T09:06:29;14.55;;;11.15;;
36391;SDS011;22639;42.690;23.356;2023-04-03T09:12:24;10.43;;;8.50;;
36391;SDS011;22639;42.690;23.356;2023-04-03T09:21:51;10.80;;;7.40;;
36391;SDS011;22639;42.690;23.356;2023-04-03T09:24:18;13.20;;;9.35;;
36391;SDS011;22639;42.690;23.356;2023-04-03T09:26:45;11.43;;;9.45;;
36391;SDS011;22639;42.690;23.356;2023-04-03T09:29:21;15.50;;;9.57;;
36391;SDS011;22639;42.690;23.356;2023-04-03T09:31:47;12.45;;;10.13;;
36391;SDS011;22639;42.690;23.356;2023-04-03T09:34:23;11.80;;;9.45;;
36391;SDS011;22639;42.690;23.356;2023-04-03T09:36:51;10.35;;;9.32;;
36391;SDS011;22639;42.690;23.356;2023-04-03T09:39:24;12.85;;;10.32;;
36391;SDS011;22639;42.690;23.356;2023-04-03T09:44:54;11.68;;;9.25;;
36391;SDS011;22639;42.690;23.356;2023-04-03T09:47:31;11.80;;;9.50;;
36391;SDS011;22639;42.690;23.356;2023-04-03T09:52:45;11.68;;;10.00;;
36391;SDS011;22639;42.690;23.356;2023-04-03T09:55:24;13.52;;;10.52;;
36391;SDS011;22639;42.690;23.356;2023-04-03T09:58:03;15.57;;;10.40;;
36391;SDS011;22639;42.690;23.356;2023-04-03T10:00:38;12.90;;;9.75;;
36391;SDS011;22639;42.690;23.356;2023-04-03T10:03:05;12.23;;;9.02;;
36391;SDS011;22639;42.690;23.356;2023-04-03T10:08:38;12.30;;;8.70;;
36391;SDS011;22639;42.690;23.356;2023-04-03T10:10:46;10.30;;;8.45;;
36391;SDS011;22639;42.690;23.356;2023-04-03T10:13:13;10.90;;;9.00;;
36391;SDS011;22639;42.690;23.356;2023-04-03T10:15:49;8.90;;;7.55;;
36391;SDS011;22639;42.690;23.356;2023-04-03T10:18:21;18.65;;;9.88;;
36391;SDS011;22639;42.690;23.356;2023-04-03T10:20:51;8.77;;;6.95;;
36391;SDS011;22639;42.690;23.356;2023-04-03T10:23:18;12.10;;;8.23;;
36391;SDS011;22639;42.690;23.356;2023-04-03T10:31:46;11.03;;;7.67;;
36391;SDS011;22639;42.690;23.356;2023-04-03T10:33:47;8.13;;;6.20;;
36391;SDS011;22639;42.690;23.356;2023-04-03T10:39:12;12.98;;;6.60;;
36391;SDS011;22639;42.690;23.356;2023-04-03T10:46:35;8.80;;;5.80;;
36391;SDS011;22639;42.690;23.356;2023-04-03T10:49:10;8.98;;;6.30;;
36391;SDS011;22639;42.690;23.356;2023-04-03T10:51:50;6.30;;;5.65;;
36391;SDS011;22639;42.690;23.356;2023-04-03T10:54:21;8.60;;;5.07;;
36391;SDS011;22639;42.690;23.356;2023-04-03T11:01:50;7.55;;;5.40;;
36391;SDS011;22639;42.690;23.356;2023-04-03T11:04:16;5.00;;;4.50;;
36391;SDS011;22639;42.690;23.356;2023-04-03T11:06:49;6.25;;;4.32;;
36391;SDS011;22639;42.690;23.356;2023-04-03T11:09:18;5.70;;;4.03;;
36391;SDS011;22639;42.690;23.356;2023-04-03T11:11:45;4.72;;;3.70;;
36391;SDS011;22639;42.690;23.356;2023-04-03T11:14:25;3.92;;;3.22;;
36391;SDS011;22639;42.690;23.356;2023-04-03T11:17:37;3.43;;;2.80;;
36391;SDS011;22639;42.690;23.356;2023-04-03T11:27:33;2.67;;;2.10;;
36391;SDS011;22639;42.690;23.356;2023-04-03T11:30:00;3.37;;;3.03;;
36391;SDS011;22639;42.690;23.356;2023-04-03T11:35:04;3.23;;;2.60;;
36391;SDS011;22639;42.690;23.356;2023-04-03T11:37:34;4.63;;;2.40;;
36391;SDS011;22639;42.690;23.356;2023-04-03T11:42:40;4.73;;;2.77;;
36391;SDS011;22639;42.690;23.356;2023-04-03T11:47:54;4.00;;;2.93;;
36391;SDS011;22639;42.690;23.356;2023-04-03T11:58:15;3.53;;;3.03;;
36391;SDS011;22639;42.690;23.356;2023-04-03T12:29:25;4.57;;;2.70;;
36391;SDS011;22639;42.690;23.356;2023-04-03T12:34:28;2.73;;;2.47;;
36391;SDS011;22639;42.690;23.356;2023-04-03T12:39:35;2.53;;;2.33;;
36391;SDS011;22639;42.690;23.356;2023-04-03T12:42:24;6.47;;;3.97;;
36391;SDS011;22639;42.690;23.356;2023-04-03T12:50:20;2.10;;;1.70;;
36391;SDS011;22639;42.690;23.356;2023-04-03T12:52:54;6.37;;;3.37;;
36391;SDS011;22639;42.690;23.356;2023-04-03T12:55:21;3.07;;;2.77;;
36391;SDS011;22639;42.690;23.356;2023-04-03T12:57:46;5.70;;;4.03;;
36391;SDS011;22639;42.690;23.356;2023-04-03T13:00:20;7.27;;;5.67;;
36391;SDS011;22639;42.690;23.356;2023-04-03T13:02:46;5.63;;;4.37;;
36391;SDS011;22639;42.690;23.356;2023-04-03T13:05:16;6.73;;;5.37;;
36391;SDS011;22639;42.690;23.356;2023-04-03T13:07:42;5.27;;;4.27;;
36391;SDS011;22639;42.690;23.356;2023-04-03T13:12:34;7.17;;;5.57;;
36391;SDS011;22639;42.690;23.356;2023-04-03T13:15:02;5.20;;;4.40;;
36391;SDS011;22639;42.690;23.356;2023-04-03T13:17:29;8.77;;;5.43;;
36391;SDS011;22639;42.690;23.356;2023-04-03T13:19:54;7.53;;;6.23;;
36391;SDS011;22639;42.690;23.356;2023-04-03T13:24:45;12.60;;;6.93;;
36391;SDS011;22639;42.690;23.356;2023-04-03T13:27:11;11.43;;;8.27;;
36391;SDS011;22639;42.690;23.356;2023-04-03T13:29:37;10.57;;;6.67;;
36391;SDS011;22639;42.690;23.356;2023-04-03T13:32:05;9.17;;;7.83;;
36391;SDS011;22639;42.690;23.356;2023-04-03T13:34:38;5.70;;;5.07;;
36391;SDS011;22639;42.690;23.356;2023-04-03T13:37:05;7.07;;;5.03;;
36391;SDS011;22639;42.690;23.356;2023-04-03T13:39:33;8.43;;;6.50;;
36391;SDS011;22639;42.690;23.356;2023-04-03T13:42:03;7.30;;;5.73;;
36391;SDS011;22639;42.690;23.356;2023-04-03T13:44:39;5.70;;;4.43;;
36391;SDS011;22639;42.690;23.356;2023-04-03T13:49:37;9.53;;;5.87;;
36391;SDS011;22639;42.690;23.356;2023-04-03T13:52:17;8.60;;;6.70;;
36391;SDS011;22639;42.690;23.356;2023-04-03T13:54:47;5.83;;;5.30;;
36391;SDS011;22639;42.690;23.356;2023-04-03T13:57:16;8.00;;;5.30;;
36391;SDS011;22639;42.690;23.356;2023-04-03T13:59:42;6.97;;;4.93;;
36391;SDS011;22639;42.690;23.356;2023-04-03T14:07:15;6.93;;;5.27;;
36391;SDS011;22639;42.690;23.356;2023-04-03T14:09:41;6.87;;;4.57;;
36391;SDS011;22639;42.690;23.356;2023-04-03T14:12:07;9.87;;;6.40;;
36391;SDS011;22639;42.690;23.356;2023-04-03T14:14:34;9.63;;;6.10;;
36391;SDS011;22639;42.690;23.356;2023-04-03T14:17:03;4.83;;;4.27;;
36391;SDS011;22639;42.690;23.356;2023-04-03T14:19:34;4.30;;;3.93;;
36391;SDS011;22639;42.690;23.356;2023-04-03T14:22:01;4.60;;;4.20;;
36391;SDS011;22639;42.690;23.356;2023-04-03T14:24:28;3.87;;;3.50;;
36391;SDS011;22639;42.690;23.356;2023-04-03T14:26:54;5.47;;;4.77;;
36391;SDS011;22639;42.690;23.356;2023-04-03T14:29:20;6.90;;;5.03;;
36391;SDS011;22639;42.690;23.356;2023-04-03T14:31:47;7.30;;;4.90;;
36391;SDS011;22639;42.690;23.356;2023-04-03T14:34:13;10.07;;;5.80;;
36391;SDS011;22639;42.690;23.356;2023-04-03T14:36:41;5.47;;;4.97;;
36391;SDS011;22639;42.690;23.356;2023-04-03T14:39:07;6.13;;;5.20;;
36391;SDS011;22639;42.690;23.356;2023-04-03T14:41:33;6.00;;;4.90;;
36391;SDS011;22639;42.690;23.356;2023-04-03T14:43:59;5.93;;;4.30;;
36391;SDS011;22639;42.690;23.356;2023-04-03T14:46:29;5.83;;;5.13;;
36391;SDS011;22639;42.690;23.356;2023-04-03T14:48:55;6.90;;;4.53;;
36391;SDS011;22639;42.690;23.356;2023-04-03T14:51:21;6.87;;;4.90;;
36391;SDS011;22639;42.690;23.356;2023-04-03T14:53:46;5.13;;;4.23;;
36391;SDS011;22639;42.690;23.356;2023-04-03T14:56:18;6.10;;;5.17;;
36391;SDS011;22639;42.690;23.356;2023-04-03T14:58:44;8.17;;;4.80;;
36391;SDS011;22639;42.690;23.356;2023-04-03T15:01:10;5.93;;;4.70;;
36391;SDS011;22639;42.690;23.356;2023-04-03T15:03:37;4.23;;;3.37;;
36391;SDS011;22639;42.690;23.356;2023-04-03T15:06:02;3.30;;;2.57;;
36391;SDS011;22639;42.690;23.356;2023-04-03T15:08:28;3.93;;;2.07;;
36391;SDS011;22639;42.690;23.356;2023-04-03T15:10:56;3.73;;;2.57;;
36391;SDS011;22639;42.690;23.356;2023-04-03T15:13:22;3.50;;;3.20;;
36391;SDS011;22639;42.690;23.356;2023-04-03T15:15:48;3.57;;;3.27;;
36391;SDS011;22639;42.690;23.356;2023-04-03T15:18:15;2.53;;;1.93;;
36391;SDS011;22639;42.690;23.356;2023-04-03T15:20:41;4.37;;;3.90;;
36391;SDS011;22639;42.690;23.356;2023-04-03T15:23:08;3.30;;;3.00;;
36391;SDS011;22639;42.690;23.356;2023-04-03T15:25:34;3.83;;;2.77;;
36391;SDS011;22639;42.690;23.356;2023-04-03T15:27:59;4.27;;;3.10;;
36391;SDS011;22639;42.690;23.356;2023-04-03T15:30:24;3.27;;;2.97;;
36391;SDS011;22639;42.690;23.356;2023-04-03T15:32:50;3.37;;;3.07;;
36391;SDS011;22639;42.690;23.356;2023-04-03T15:35:15;5.60;;;3.93;;
36391;SDS011;22639;42.690;23.356;2023-04-03T15:37:40;3.70;;;3.27;;
36391;SDS011;22639;42.690;23.356;2023-04-03T15:40:06;5.33;;;4.33;;
36391;SDS011;22639;42.690;23.356;2023-04-03T15:42:31;5.50;;;4.00;;
36391;SDS011;22639;42.690;23.356;2023-04-03T15:44:57;6.30;;;4.97;;
36391;SDS011;22639;42.690;23.356;2023-04-03T15:47:22;6.77;;;5.40;;
36391;SDS011;22639;42.690;23.356;2023-04-03T15:49:49;9.27;;;7.20;;
36391;SDS011;22639;42.690;23.356;2023-04-03T15:52:14;8.77;;;6.93;;
36391;SDS011;22639;42.690;23.356;2023-04-03T15:54:39;9.40;;;7.47;;
36391;SDS011;22639;42.690;23.356;2023-04-03T15:57:05;7.17;;;6.40;;
36391;SDS011;22639;42.690;23.356;2023-04-03T15:59:30;8.47;;;6.37;;
36391;SDS011;22639;42.690;23.356;2023-04-03T16:01:57;7.57;;;6.10;;
36391;SDS011;22639;42.690;23.356;2023-04-03T16:04:22;6.17;;;4.77;;
36391;SDS011;22639;42.690;23.356;2023-04-03T16:06:48;5.63;;;4.10;;
36391;SDS011;22639;42.690;23.356;2023-04-03T16:09:13;4.93;;;4.00;;
36391;SDS011;22639;42.690;23.356;2023-04-03T16:11:38;6.63;;;5.23;;
36391;SDS011;22639;42.690;23.356;2023-04-03T16:14:07;7.43;;;6.07;;
36391;SDS011;22639;42.690;23.356;2023-04-03T16:16:32;9.40;;;8.03;;
36391;SDS011;22639;42.690;23.356;2023-04-03T16:18:58;10.07;;;8.43;;
36391;SDS011;22639;42.690;23.356;2023-04-03T16:21:23;9.27;;;8.23;;
36391;SDS011;22639;42.690;23.356;2023-04-03T16:23:48;12.80;;;8.50;;
36391;SDS011;22639;42.690;23.356;2023-04-03T16:26:14;11.97;;;8.33;;